Time;durP1;ratioP1;P1;durP2;ratioP2;P2;SDS_P1;SDS_P2;PMS_P1;PMS_P2;Temp;Humidity;BMP_temperature;BMP_pressure;BME280_temperature;BME280_humidity;BME280_pressure;Samples;Min_cycle;Max_cycle;Signal;HPM_P1;HPM_P2
2022/12/23 00:01:20;;;;;;;12.25;10.77;;;9.80;99.90;;;;;;5046057;28;20227;-78
2022/12/23 00:03:47;;;;;;;13.02;11.45;;;9.80;99.90;;;;;;5054745;28;20232;-77
2022/12/23 00:06:20;;;;;;;11.05;9.57;;;9.80;99.90;;;;;;5055801;28;20224;-77
2022/12/23 00:08:46;;;;;;;12.85;9.68;;;9.80;99.90;;;;;;5054975;28;20231;-77
2022/12/23 00:11:18;;;;;;;16.13;10.15;;;9.80;99.90;;;;;;5055312;28;20234;-76
2022/12/23 00:16:31;;;;;;;11.30;8.77;;;9.70;99.90;;;;;;5048358;28;20546;-76
2022/12/23 00:18:58;;;;;;;11.68;9.38;;;9.70;99.90;;;;;;5054604;28;20234;-76
2022/12/23 00:21:25;;;;;;;11.73;9.65;;;9.70;99.90;;;;;;5054404;28;20311;-76
2022/12/23 00:23:56;;;;;;;11.98;9.63;;;9.70;99.90;;;;;;5050572;28;20310;-76
2022/12/23 00:26:30;;;;;;;13.15;10.93;;;9.70;99.90;;;;;;5044466;28;20339;-77
2022/12/23 00:28:57;;;;;;;16.65;12.57;;;9.70;99.90;;;;;;5053112;28;20268;-76
2022/12/23 00:31:25;;;;;;;13.73;11.15;;;9.70;99.90;;;;;;5054512;28;20228;-76
2022/12/23 00:33:53;;;;;;;15.40;11.45;;;9.70;99.90;;;;;;5049733;28;20667;-76
2022/12/23 00:36:25;;;;;;;11.82;9.48;;;9.70;99.90;;;;;;5053478;28;20225;-77
2022/12/23 00:44:21;;;;;;;15.25;10.20;;;9.70;99.90;;;;;;5051278;28;20642;-77
2022/12/23 00:46:48;;;;;;;11.25;9.35;;;9.70;99.90;;;;;;5049884;28;20220;-76
2022/12/23 00:49:42;;;;;;;12.70;9.63;;;9.60;99.90;;;;;;5045081;28;20235;-77
2022/12/23 00:52:11;;;;;;;10.65;8.73;;;9.60;99.90;;;;;;5054998;28;20251;-76
2022/12/23 00:54:45;;;;;;;10.20;8.38;;;9.70;99.90;;;;;;5054772;28;20299;-77
2022/12/23 00:57:13;;;;;;;11.07;9.48;;;9.60;99.90;;;;;;5053073;28;20303;-77
2022/12/23 00:59:40;;;;;;;10.25;8.35;;;9.60;99.90;;;;;;5051923;28;20229;-76
2022/12/23 01:07:42;;;;;;;12.65;10.82;;;9.60;99.90;;;;;;5054729;28;20485;-77
2022/12/23 01:10:11;;;;;;;17.75;11.75;;;9.70;99.90;;;;;;5040930;28;20217;-77
2022/12/23 01:12:38;;;;;;;16.70;12.07;;;9.60;99.90;;;;;;5053713;28;20225;-77
2022/12/23 01:15:07;;;;;;;14.00;11.20;;;9.70;99.90;;;;;;5043196;28;20229;-77
2022/12/23 01:17:37;;;;;;;15.30;10.68;;;9.70;99.90;;;;;;5054246;28;20233;-76
2022/12/23 01:20:07;;;;;;;14.48;11.00;;;9.70;99.90;;;;;;5043164;28;20235;-77
2022/12/23 01:22:34;;;;;;;14.80;9.85;;;9.70;99.90;;;;;;5053189;28;20282;-78
2022/12/23 01:25:01;;;;;;;12.95;9.10;;;9.70;99.90;;;;;;5043274;28;20304;-77
2022/12/23 01:27:33;;;;;;;12.80;9.48;;;9.70;99.90;;;;;;5053529;28;20235;-77
2022/12/23 01:30:00;;;;;;;13.30;9.57;;;9.70;99.90;;;;;;5053961;28;20228;-77
2022/12/23 01:32:27;;;;;;;12.20;9.50;;;9.70;99.90;;;;;;5053448;28;20228;-78
2022/12/23 01:34:54;;;;;;;11.75;8.95;;;9.70;99.90;;;;;;5054191;28;20307;-78
2022/12/23 01:37:23;;;;;;;16.63;10.07;;;9.70;99.90;;;;;;5040192;28;20240;-78
2022/12/23 01:39:52;;;;;;;13.02;11.18;;;9.70;99.90;;;;;;5054051;28;20228;-78
2022/12/23 01:45:11;;;;;;;13.02;9.93;;;9.70;99.90;;;;;;5044430;28;20235;-77
2022/12/23 01:47:44;;;;;;;13.82;8.70;;;9.70;99.90;;;;;;5036119;28;20222;-77
2022/12/23 01:50:15;;;;;;;15.82;9.75;;;9.70;99.90;;;;;;5030023;28;20357;-77
2022/12/23 01:52:51;;;;;;;11.13;8.70;;;9.70;99.90;;;;;;5044877;28;20315;-77
2022/12/23 01:55:23;;;;;;;13.10;10.93;;;9.70;99.90;;;;;;5053368;28;20685;-77
2022/12/23 01:57:51;;;;;;;14.68;9.60;;;9.70;99.90;;;;;;5054252;28;20262;-77
2022/12/23 02:05:48;;;;;;;15.05;11.23;;;9.70;99.90;;;;;;5044051;28;20231;-76
2022/12/23 02:11:22;;;;;;;15.15;9.75;;;9.70;99.90;;;;;;5042099;28;20656;-78
2022/12/23 02:16:54;;;;;;;16.63;11.85;;;9.60;99.90;;;;;;5040390;28;20235;-77
2022/12/23 02:19:51;;;;;;;17.17;12.25;;;9.70;99.90;;;;;;5053068;28;20303;-77
2022/12/23 02:22:39;;;;;;;13.82;10.30;;;9.60;99.90;;;;;;5024886;28;20708;-77
2022/12/23 02:25:58;;;;;;;16.85;11.32;;;9.60;99.90;;;;;;5051730;28;20220;-77
2022/12/23 02:28:44;;;;;;;14.70;11.65;;;9.60;99.90;;;;;;5045208;28;20221;-77
2022/12/23 02:31:21;;;;;;;12.45;10.63;;;9.60;99.90;;;;;;5023910;28;20226;-76
2022/12/23 02:33:58;;;;;;;20.08;13.38;;;9.60;99.90;;;;;;5051047;28;20293;-77
2022/12/23 02:36:42;;;;;;;18.38;12.15;;;9.60;99.90;;;;;;5052681;28;20289;-77
2022/12/23 02:39:17;;;;;;;14.52;11.18;;;9.60;99.90;;;;;;5040312;28;20244;-77
2022/12/23 02:41:56;;;;;;;20.00;13.52;;;9.60;99.90;;;;;;5040419;28;20247;-77
2022/12/23 02:44:32;;;;;;;18.77;12.70;;;9.50;99.90;;;;;;5051963;28;20232;-77
2022/12/23 02:47:05;;;;;;;19.55;13.55;;;9.50;99.90;;;;;;5052081;28;20610;-76
2022/12/23 02:49:36;;;;;;;16.52;12.20;;;9.50;99.90;;;;;;5049155;28;20374;-77
2022/12/23 02:52:12;;;;;;;16.15;12.07;;;9.50;99.90;;;;;;5052958;28;20270;-76
2022/12/23 02:54:44;;;;;;;17.92;12.40;;;9.50;99.90;;;;;;5051034;28;20250;-75
2022/12/23 02:57:13;;;;;;;17.25;11.70;;;9.60;99.90;;;;;;5052565;28;20220;-76
2022/12/23 02:59:45;;;;;;;16.80;12.10;;;9.50;99.90;;;;;;5052547;28;20313;-76
2022/12/23 03:02:16;;;;;;;16.45;12.73;;;9.60;99.90;;;;;;5052721;28;20307;-76
2022/12/23 03:04:43;;;;;;;17.35;12.85;;;9.60;99.90;;;;;;5052396;28;20296;-76
2022/12/23 03:07:16;;;;;;;16.42;12.93;;;9.60;99.90;;;;;;5052447;28;20275;-76
2022/12/23 03:09:53;;;;;;;18.55;13.18;;;9.60;99.90;;;;;;5051442;28;20315;-77
2022/12/23 03:12:34;;;;;;;21.38;13.57;;;9.50;99.90;;;;;;5051662;28;20228;-78
2022/12/23 03:15:29;;;;;;;24.20;14.90;;;9.50;99.90;;;;;;5052102;28;20305;-77
2022/12/23 03:18:06;;;;;;;18.42;12.50;;;9.50;99.90;;;;;;5052530;28;20667;-77
2022/12/23 03:20:41;;;;;;;17.95;13.15;;;9.50;99.90;;;;;;5050582;28;20259;-76
2022/12/23 03:23:22;;;;;;;17.38;12.90;;;9.50;99.90;;;;;;5050458;28;20224;-76
2022/12/23 03:25:58;;;;;;;16.85;13.13;;;9.60;99.90;;;;;;5052405;28;20212;-76
2022/12/23 03:28:31;;;;;;;17.77;11.68;;;9.50;99.90;;;;;;5052583;28;20303;-76
2022/12/23 03:31:00;;;;;;;16.23;12.30;;;9.50;99.90;;;;;;5050961;28;20224;-76
2022/12/23 03:33:32;;;;;;;19.08;14.00;;;9.50;99.90;;;;;;5049868;28;20602;-75
2022/12/23 03:36:06;;;;;;;18.73;12.48;;;9.50;99.90;;;;;;5049593;28;20308;-76
2022/12/23 03:38:35;;;;;;;13.65;10.80;;;9.60;99.90;;;;;;5050274;28;20253;-76
2022/12/23 03:41:09;;;;;;;18.75;13.90;;;9.50;99.90;;;;;;5049878;28;20252;-76
2022/12/23 03:43:43;;;;;;;19.77;14.93;;;9.60;99.90;;;;;;5050106;28;20235;-76
2022/12/23 03:46:16;;;;;;;19.65;14.27;;;9.50;99.90;;;;;;5051699;28;20236;-76
2022/12/23 03:48:48;;;;;;;22.13;14.48;;;9.50;99.90;;;;;;5051471;28;20698;-75
2022/12/23 03:51:22;;;;;;;20.38;13.45;;;9.50;99.90;;;;;;5051643;28;20311;-76
2022/12/23 03:53:54;;;;;;;17.77;13.65;;;9.50;99.90;;;;;;5052133;28;20339;-76
2022/12/23 03:56:32;;;;;;;24.00;14.95;;;9.50;99.90;;;;;;5051587;28;20213;-77
2022/12/23 03:59:08;;;;;;;18.00;13.52;;;9.50;99.90;;;;;;5050995;28;20548;-75
2022/12/23 04:01:56;;;;;;;17.55;12.57;;;9.50;99.90;;;;;;5034137;28;20544;-76
2022/12/23 04:04:30;;;;;;;19.15;13.90;;;9.50;99.90;;;;;;5032283;28;20587;-76
2022/12/23 04:07:05;;;;;;;17.10;13.48;;;9.50;99.90;;;;;;5032042;28;20321;-76
2022/12/23 04:09:33;;;;;;;18.35;13.63;;;9.50;99.90;;;;;;5030881;28;20229;-76
2022/12/23 04:12:00;;;;;;;15.25;11.50;;;9.50;99.90;;;;;;5021040;28;20568;-77
2022/12/23 04:14:27;;;;;;;20.52;15.10;;;9.50;99.90;;;;;;5031394;28;20557;-77
2022/12/23 04:17:01;;;;;;;18.17;13.05;;;9.50;99.90;;;;;;5030789;28;20229;-76
2022/12/23 04:19:29;;;;;;;23.55;14.20;;;9.50;99.90;;;;;;5029880;28;20312;-77
2022/12/23 04:21:57;;;;;;;18.73;11.98;;;9.50;99.90;;;;;;5032327;28;20294;-77
2022/12/23 04:24:25;;;;;;;14.10;11.45;;;9.60;99.90;;;;;;5030626;28;20256;-76
2022/12/23 04:26:52;;;;;;;19.88;15.55;;;9.60;99.90;;;;;;5021727;28;20221;-77
2022/12/23 04:29:19;;;;;;;22.80;14.40;;;9.50;99.90;;;;;;5020857;28;20316;-77
2022/12/23 04:31:47;;;;;;;18.30;14.02;;;9.50;99.90;;;;;;5031217;28;20245;-76
2022/12/23 04:34:14;;;;;;;20.10;14.07;;;9.50;99.90;;;;;;5033518;28;20245;-77
2022/12/23 04:36:43;;;;;;;15.18;12.48;;;9.60;99.90;;;;;;5024830;28;20611;-77
2022/12/23 04:39:10;;;;;;;16.33;12.25;;;9.60;99.90;;;;;;5034420;28;20593;-76
2022/12/23 04:41:37;;;;;;;15.60;11.75;;;9.60;99.90;;;;;;5033971;28;20300;-76
2022/12/23 04:44:04;;;;;;;16.75;12.60;;;9.60;99.90;;;;;;5035530;28;20222;-77
2022/12/23 04:46:33;;;;;;;20.83;13.45;;;9.60;99.90;;;;;;5035317;28;20225;-76
2022/12/23 04:49:00;;;;;;;19.10;13.73;;;9.60;99.90;;;;;;5035481;28;20237;-76
2022/12/23 04:51:26;;;;;;;17.80;14.15;;;9.60;99.90;;;;;;5034712;28;20332;-76
2022/12/23 04:53:56;;;;;;;18.52;13.40;;;9.60;99.90;;;;;;5035272;28;20310;-76
2022/12/23 04:56:23;;;;;;;19.20;14.02;;;9.60;99.90;;;;;;5035205;28;20232;-77
2022/12/23 04:58:50;;;;;;;18.67;14.43;;;9.60;99.90;;;;;;5035554;28;20277;-77
2022/12/23 05:01:19;;;;;;;22.25;14.85;;;9.60;99.90;;;;;;5035313;28;20245;-76
2022/12/23 05:03:46;;;;;;;19.10;14.50;;;9.60;99.90;;;;;;5035253;28;20213;-76
2022/12/23 05:06:13;;;;;;;17.50;13.90;;;9.60;99.90;;;;;;5035767;28;20237;-76
2022/12/23 05:08:41;;;;;;;21.42;15.45;;;9.70;99.90;;;;;;5034962;28;20225;-77
2022/12/23 05:11:10;;;;;;;22.30;15.77;;;9.70;99.90;;;;;;5035041;28;20320;-76
2022/12/23 05:13:37;;;;;;;16.83;13.13;;;9.70;99.90;;;;;;5034610;28;20222;-77
2022/12/23 05:16:04;;;;;;;24.05;16.40;;;9.70;99.90;;;;;;5035034;28;20232;-76
2022/12/23 05:18:34;;;;;;;20.23;13.63;;;9.70;99.90;;;;;;5034338;28;20611;-76
2022/12/23 05:21:01;;;;;;;22.63;13.07;;;9.70;99.90;;;;;;5035096;28;20308;-76
2022/12/23 05:23:28;;;;;;;17.30;13.48;;;9.70;99.90;;;;;;5034088;28;20225;-77
2022/12/23 05:25:57;;;;;;;18.02;12.80;;;9.70;99.90;;;;;;5035173;28;20304;-76
2022/12/23 05:28:26;;;;;;;17.15;12.63;;;9.70;99.90;;;;;;5034688;28;20252;-75
2022/12/23 05:30:58;;;;;;;18.95;13.10;;;9.70;99.90;;;;;;5034654;28;20245;-76
2022/12/23 05:33:25;;;;;;;20.73;15.13;;;9.70;99.90;;;;;;5034216;28;20240;-76
2022/12/23 05:35:52;;;;;;;15.80;12.07;;;9.70;99.90;;;;;;5034284;28;20229;-76
2022/12/23 05:38:19;;;;;;;16.25;11.80;;;9.70;99.90;;;;;;5034826;28;20256;-77
2022/12/23 05:40:46;;;;;;;16.27;11.43;;;9.70;99.90;;;;;;5033366;28;20257;-76
2022/12/23 05:43:16;;;;;;;20.42;13.50;;;9.70;99.90;;;;;;5034470;28;20320;-76
2022/12/23 05:45:51;;;;;;;20.73;14.15;;;9.80;99.90;;;;;;5033102;28;20225;-76
2022/12/23 05:48:21;;;;;;;16.95;12.15;;;9.80;99.90;;;;;;5034509;28;20299;-77
2022/12/23 05:50:50;;;;;;;18.30;12.80;;;9.80;99.90;;;;;;5033920;28;20248;-76
2022/12/23 05:53:18;;;;;;;16.27;11.95;;;9.70;99.90;;;;;;5033682;28;20225;-76
2022/12/23 05:55:45;;;;;;;20.63;13.90;;;9.70;99.90;;;;;;5025373;28;20281;-76
2022/12/23 05:58:12;;;;;;;19.83;14.70;;;9.70;99.90;;;;;;5034159;28;20229;-77
2022/12/23 06:00:43;;;;;;;15.85;12.00;;;9.70;99.90;;;;;;5033100;28;20237;-76
2022/12/23 06:03:14;;;;;;;20.90;15.45;;;9.70;99.90;;;;;;5034321;28;20336;-77
2022/12/23 06:05:53;;;;;;;17.23;13.68;;;9.70;99.90;;;;;;5033265;28;20225;-77
2022/12/23 06:08:20;;;;;;;17.73;13.65;;;9.70;99.90;;;;;;5033850;28;20290;-76
2022/12/23 06:10:53;;;;;;;18.95;12.75;;;9.70;99.90;;;;;;5033152;28;20272;-77
2022/12/23 06:13:22;;;;;;;17.85;13.07;;;9.70;99.90;;;;;;5023568;28;20267;-76
2022/12/23 06:15:49;;;;;;;17.02;12.93;;;9.70;99.90;;;;;;5032871;28;20701;-76
2022/12/23 06:18:18;;;;;;;19.98;14.07;;;9.70;99.90;;;;;;5034090;28;20221;-76
2022/12/23 06:20:46;;;;;;;23.02;14.48;;;9.70;99.90;;;;;;5033166;28;20247;-76
2022/12/23 06:23:13;;;;;;;19.77;14.15;;;9.70;99.90;;;;;;5033446;28;20687;-76
2022/12/23 06:25:40;;;;;;;16.25;12.60;;;9.70;99.90;;;;;;5033375;28;20582;-77
2022/12/23 06:28:09;;;;;;;15.48;11.48;;;9.70;99.90;;;;;;5033780;28;20276;-77
2022/12/23 06:30:36;;;;;;;15.40;12.05;;;9.70;99.90;;;;;;5033588;28;20233;-76
2022/12/23 06:33:06;;;;;;;16.38;12.48;;;9.70;99.90;;;;;;5032679;28;20295;-77
2022/12/23 06:35:34;;;;;;;14.88;11.00;;;9.70;99.90;;;;;;5033837;28;20308;-77
2022/12/23 06:38:02;;;;;;;15.18;10.85;;;9.70;99.90;;;;;;5032999;28;20237;-76
2022/12/23 06:40:30;;;;;;;14.45;11.63;;;9.70;99.90;;;;;;5033630;28;20229;-77
2022/12/23 06:42:57;;;;;;;16.52;11.82;;;9.70;99.90;;;;;;5024379;28;20236;-76
2022/12/23 06:45:24;;;;;;;18.13;12.20;;;9.70;99.90;;;;;;5033763;28;20230;-77
2022/12/23 06:48:00;;;;;;;15.75;12.70;;;9.80;99.90;;;;;;5031927;28;20338;-76
2022/12/23 06:50:27;;;;;;;15.63;10.65;;;9.80;99.90;;;;;;5033506;28;20573;-77
2022/12/23 06:52:58;;;;;;;15.52;10.88;;;9.80;99.90;;;;;;5023907;28;20336;-76
2022/12/23 06:55:24;;;;;;;20.77;13.80;;;9.80;99.90;;;;;;5033385;28;20691;-76
2022/12/23 06:57:53;;;;;;;18.35;14.13;;;9.80;99.90;;;;;;5024032;28;20255;-77
2022/12/23 07:00:20;;;;;;;18.15;14.20;;;9.80;99.90;;;;;;5033635;28;20229;-76
2022/12/23 07:02:51;;;;;;;15.07;11.40;;;9.80;99.90;;;;;;5033185;28;20235;-76
2022/12/23 07:05:18;;;;;;;16.48;11.45;;;9.80;99.90;;;;;;5022191;28;20229;-77
2022/12/23 07:07:58;;;;;;;19.70;13.15;;;9.80;99.90;;;;;;5032685;28;20303;-77
2022/12/23 07:10:28;;;;;;;13.65;11.10;;;9.90;99.90;;;;;;5033083;28;20228;-76
2022/12/23 07:12:55;;;;;;;14.50;11.10;;;9.80;99.90;;;;;;5032723;28;20229;-77
2022/12/23 07:15:22;;;;;;;15.73;10.85;;;9.80;99.90;;;;;;5032201;28;20291;-77
2022/12/23 07:17:49;;;;;;;16.98;11.73;;;9.80;99.90;;;;;;5032670;28;20283;-77
2022/12/23 07:20:16;;;;;;;15.07;10.50;;;9.80;99.90;;;;;;5031896;28;20308;-76
2022/12/23 07:22:45;;;;;;;16.13;11.60;;;9.80;99.90;;;;;;5032095;28;20247;-76
2022/12/23 07:25:14;;;;;;;16.63;10.68;;;9.90;99.90;;;;;;5022917;28;20233;-76
2022/12/23 07:27:41;;;;;;;14.68;11.30;;;9.90;99.90;;;;;;5032929;28;20294;-77
2022/12/23 07:30:11;;;;;;;15.90;12.30;;;9.90;99.90;;;;;;5031863;28;20225;-77
2022/12/23 07:32:39;;;;;;;16.10;11.00;;;9.90;99.90;;;;;;5032051;28;20248;-77
2022/12/23 07:35:06;;;;;;;15.25;10.45;;;9.90;99.90;;;;;;5025475;28;20707;-77
2022/12/23 07:37:43;;;;;;;12.95;10.05;;;9.90;99.90;;;;;;5032560;28;20283;-77
2022/12/23 07:40:15;;;;;;;15.27;9.80;;;9.90;99.90;;;;;;5032062;28;20694;-77
2022/12/23 07:42:42;;;;;;;15.82;10.25;;;9.90;99.90;;;;;;5032466;28;20229;-77
2022/12/23 07:45:10;;;;;;;16.88;11.68;;;9.90;99.90;;;;;;5031971;28;20229;-76
2022/12/23 07:47:37;;;;;;;18.33;12.32;;;9.90;99.90;;;;;;5024317;28;20523;-76
2022/12/23 07:50:05;;;;;;;15.15;11.55;;;9.90;99.90;;;;;;5032316;28;20236;-77
2022/12/23 07:52:32;;;;;;;20.25;11.43;;;9.80;99.90;;;;;;5019055;28;20733;-76
2022/12/23 07:54:59;;;;;;;15.18;10.80;;;9.80;99.90;;;;;;5032001;28;20307;-77
2022/12/23 07:57:41;;;;;;;16.00;10.75;;;9.80;99.90;;;;;;5019983;28;20229;-76
2022/12/23 08:00:11;;;;;;;18.80;14.27;;;9.80;99.90;;;;;;5031472;28;20233;-77
2022/12/23 08:02:38;;;;;;;22.73;14.25;;;9.80;99.90;;;;;;5032240;28;20256;-76
2022/12/23 08:05:06;;;;;;;20.27;15.18;;;9.90;99.90;;;;;;5020460;28;20225;-76
2022/12/23 08:07:33;;;;;;;20.95;14.20;;;9.80;99.90;;;;;;5031933;28;20236;-77
2022/12/23 08:10:00;;;;;;;19.02;13.52;;;9.80;99.90;;;;;;5026731;28;20233;-77
2022/12/23 08:12:27;;;;;;;16.15;11.63;;;9.80;99.90;;;;;;5036035;28;20308;-77
2022/12/23 08:14:56;;;;;;;19.38;12.88;;;9.80;99.90;;;;;;5036018;28;20602;-77
2022/12/23 08:17:32;;;;;;;23.00;11.95;;;9.80;99.90;;;;;;5036530;28;20226;-77
2022/12/23 08:20:03;;;;;;;19.00;11.57;;;9.80;99.90;;;;;;5034847;28;20236;-76
2022/12/23 08:22:31;;;;;;;20.40;11.48;;;9.80;99.90;;;;;;5036631;28;20232;-77
2022/12/23 08:24:58;;;;;;;21.48;12.90;;;9.80;99.90;;;;;;5035957;28;20225;-76
2022/12/23 08:27:31;;;;;;;20.42;11.55;;;9.80;99.90;;;;;;5036435;28;20231;-77
2022/12/23 08:29:59;;;;;;;19.60;12.10;;;9.80;99.90;;;;;;5035848;28;20632;-77
2022/12/23 08:32:29;;;;;;;21.58;12.15;;;9.80;99.90;;;;;;5036284;28;20670;-77
2022/12/23 08:34:57;;;;;;;17.73;10.38;;;9.80;99.90;;;;;;5035692;28;20225;-77
2022/12/23 08:37:25;;;;;;;19.75;11.15;;;9.80;99.90;;;;;;5027219;28;20308;-77
2022/12/23 08:39:52;;;;;;;16.52;9.65;;;9.80;99.90;;;;;;5028028;28;20316;-76
2022/12/23 08:42:23;;;;;;;17.38;10.40;;;9.80;99.90;;;;;;5035933;28;20213;-76
2022/12/23 08:44:50;;;;;;;21.95;11.20;;;9.80;99.90;;;;;;5035750;28;20222;-77
2022/12/23 08:47:20;;;;;;;19.10;11.30;;;9.90;99.90;;;;;;5036885;28;20221;-76
2022/12/23 08:49:50;;;;;;;19.98;11.15;;;9.80;99.90;;;;;;5034985;28;20230;-77
2022/12/23 08:52:17;;;;;;;21.77;11.40;;;9.80;99.90;;;;;;5037020;28;20651;-76
2022/12/23 08:54:44;;;;;;;15.82;9.90;;;9.80;99.90;;;;;;5038193;28;20256;-75
2022/12/23 08:57:11;;;;;;;18.63;10.65;;;9.80;99.90;;;;;;5037298;28;20308;-78
2022/12/23 08:59:38;;;;;;;18.00;10.27;;;9.80;99.90;;;;;;5029370;28;20229;-78
2022/12/23 09:02:06;;;;;;;16.38;9.93;;;9.80;99.90;;;;;;5037840;28;20232;-78
2022/12/23 09:04:37;;;;;;;16.00;10.27;;;9.80;99.90;;;;;;5038819;28;20230;-78
2022/12/23 09:07:04;;;;;;;15.75;8.55;;;9.80;99.90;;;;;;5041232;28;20230;-79
2022/12/23 09:09:31;;;;;;;16.42;9.35;;;9.80;99.90;;;;;;5044410;28;20308;-78
2022/12/23 09:12:02;;;;;;;19.65;10.90;;;9.80;99.90;;;;;;5045834;28;20237;-77
2022/12/23 09:17:10;;;;;;;17.45;9.25;;;9.80;99.90;;;;;;5046432;28;20323;-77
2022/12/23 09:19:38;;;;;;;17.60;9.18;;;9.90;99.90;;;;;;5047644;28;20236;-77
2022/12/23 09:24:46;;;;;;;15.88;8.63;;;9.90;99.90;;;;;;5034207;28;20221;-77
2022/12/23 09:27:13;;;;;;;11.70;8.52;;;9.90;99.90;;;;;;5045914;28;20229;-77
2022/12/23 09:29:40;;;;;;;10.25;7.50;;;9.90;99.90;;;;;;5053631;28;20248;-76
2022/12/23 09:32:07;;;;;;;10.35;7.72;;;9.90;99.90;;;;;;5053639;28;20205;-77
2022/12/23 09:34:34;;;;;;;13.80;9.25;;;9.90;99.90;;;;;;5054201;28;20217;-77
2022/12/23 09:37:03;;;;;;;13.27;8.85;;;9.90;99.90;;;;;;5053698;28;20248;-77
2022/12/23 09:39:30;;;;;;;15.68;9.30;;;9.90;99.90;;;;;;5041277;28;20237;-75
2022/12/23 09:42:07;;;;;;;15.88;9.27;;;9.90;99.90;;;;;;5051937;28;20239;-76
2022/12/23 09:44:58;;;;;;;13.40;8.45;;;9.90;99.90;;;;;;5040550;28;20262;-75
2022/12/23 09:47:29;;;;;;;15.40;8.90;;;9.90;99.90;;;;;;5046386;28;20239;-76
2022/12/23 09:50:02;;;;;;;14.05;9.63;;;9.90;99.90;;;;;;5053411;28;20229;-76
2022/12/23 09:52:39;;;;;;;22.10;12.02;;;10.00;99.90;;;;;;5052991;28;20244;-78
2022/12/23 09:55:10;;;;;;;15.90;10.63;;;10.00;99.90;;;;;;5049189;28;20290;-77
2022/12/23 09:57:46;;;;;;;12.07;8.75;;;10.00;99.90;;;;;;5044139;28;20256;-77
2022/12/23 10:00:16;;;;;;;13.85;9.90;;;10.00;99.90;;;;;;5046433;28;20312;-76
2022/12/23 10:03:04;;;;;;;12.70;8.23;;;10.00;99.90;;;;;;5045005;28;20252;-76
2022/12/23 10:05:39;;;;;;;11.93;8.05;;;10.00;99.90;;;;;;5027890;28;20241;-76
2022/12/23 10:08:15;;;;;;;15.55;9.10;;;10.00;99.90;;;;;;5038951;28;20283;-77
2022/12/23 10:10:46;;;;;;;14.57;9.00;;;10.00;99.90;;;;;;5036245;28;20302;-77
2022/12/23 10:13:25;;;;;;;17.25;10.13;;;10.00;99.90;;;;;;5036713;28;20237;-76
2022/12/23 10:15:54;;;;;;;12.45;8.35;;;10.00;99.90;;;;;;5037034;28;20228;-76
2022/12/23 10:18:26;;;;;;;15.70;8.70;;;10.00;99.90;;;;;;5035428;28;20733;-76
2022/12/23 10:21:09;;;;;;;16.13;8.98;;;10.00;99.90;;;;;;5034213;28;20228;-77
2022/12/23 10:23:39;;;;;;;13.10;8.48;;;10.00;99.90;;;;;;5034124;28;20232;-77
2022/12/23 10:26:24;;;;;;;13.45;9.30;;;10.00;99.90;;;;;;5023741;28;20221;-76
2022/12/23 10:29:00;;;;;;;17.08;11.48;;;10.00;99.90;;;;;;5006344;28;20268;-77
2022/12/23 10:31:39;;;;;;;13.15;9.80;;;10.00;99.90;;;;;;5034090;28;20307;-76
2022/12/23 10:34:15;;;;;;;16.05;9.93;;;10.00;99.90;;;;;;5007411;28;20295;-76
2022/12/23 10:36:50;;;;;;;15.65;10.23;;;10.00;99.90;;;;;;5025095;28;20263;-76
2022/12/23 10:39:28;;;;;;;16.10;9.40;;;10.10;99.90;;;;;;5032681;28;20229;-77
2022/12/23 10:42:08;;;;;;;15.63;9.60;;;10.10;99.90;;;;;;5032707;28;20633;-78
2022/12/23 10:44:50;;;;;;;13.88;10.02;;;10.10;99.90;;;;;;5034329;28;20236;-78
2022/12/23 10:47:25;;;;;;;15.32;9.27;;;10.10;99.90;;;;;;5035068;28;20218;-77
2022/12/23 10:50:08;;;;;;;14.25;9.43;;;10.10;99.90;;;;;;5023484;28;20300;-76
2022/12/23 10:52:40;;;;;;;11.73;8.25;;;10.10;99.90;;;;;;5033850;28;20567;-77
2022/12/23 10:55:26;;;;;;;16.20;10.57;;;10.20;99.90;;;;;;5032874;28;20209;-77
2022/12/23 10:57:54;;;;;;;16.00;9.90;;;10.20;99.90;;;;;;5034355;28;20320;-78
2022/12/23 11:00:25;;;;;;;14.38;10.88;;;10.20;99.90;;;;;;5034116;28;20236;-77
2022/12/23 11:03:06;;;;;;;11.43;7.88;;;10.20;99.90;;;;;;5032305;28;20237;-77
2022/12/23 11:05:38;;;;;;;13.60;10.10;;;10.20;99.90;;;;;;5034969;28;20229;-77
2022/12/23 11:08:06;;;;;;;13.63;9.82;;;10.30;99.90;;;;;;5032962;28;20367;-76
2022/12/23 11:10:35;;;;;;;15.85;11.25;;;10.30;99.90;;;;;;5033467;28;20631;-77
2022/12/23 11:13:03;;;;;;;19.02;12.35;;;10.30;99.90;;;;;;5032993;28;20249;-77
2022/12/23 11:15:32;;;;;;;16.17;12.40;;;10.30;99.90;;;;;;5033222;28;20675;-76
2022/12/23 11:18:05;;;;;;;15.75;12.13;;;10.30;99.90;;;;;;5032890;28;20567;-76
2022/12/23 11:20:34;;;;;;;12.73;9.93;;;10.30;99.90;;;;;;5034118;28;20264;-77
2022/12/23 11:23:03;;;;;;;13.57;9.95;;;10.30;99.90;;;;;;5032583;28;20229;-78
2022/12/23 11:25:39;;;;;;;13.25;10.30;;;10.30;99.90;;;;;;5033059;28;20255;-77
2022/12/23 11:28:11;;;;;;;10.48;8.85;;;10.40;99.90;;;;;;5032508;28;20237;-76
2022/12/23 11:30:48;;;;;;;13.43;9.43;;;10.30;99.90;;;;;;5033500;28;20696;-77
2022/12/23 11:33:24;;;;;;;11.75;8.52;;;10.30;99.90;;;;;;5032592;28;20225;-77
2022/12/23 11:36:01;;;;;;;10.77;9.63;;;10.30;99.90;;;;;;5032625;28;20260;-77
2022/12/23 11:38:29;;;;;;;9.30;8.18;;;10.40;99.90;;;;;;5032892;28;20228;-78
2022/12/23 11:40:59;;;;;;;11.50;8.98;;;10.30;99.90;;;;;;5032304;28;20233;-77
2022/12/23 11:43:27;;;;;;;10.80;9.68;;;10.30;99.90;;;;;;5032411;28;20225;-78
2022/12/23 11:46:19;;;;;;;13.82;10.88;;;10.30;99.90;;;;;;5022458;28;20264;-77
2022/12/23 11:48:46;;;;;;;14.60;12.30;;;10.30;99.90;;;;;;5033404;28;20660;-77
2022/12/23 11:51:13;;;;;;;11.52;10.10;;;10.30;99.90;;;;;;5021398;28;20577;-77
2022/12/23 11:53:43;;;;;;;11.85;9.27;;;10.30;99.90;;;;;;5032606;28;20287;-77
2022/12/23 11:56:14;;;;;;;13.85;10.20;;;10.30;99.90;;;;;;5033455;28;20225;-77
2022/12/23 11:58:47;;;;;;;11.77;9.50;;;10.30;99.90;;;;;;5033016;28;20746;-77
2022/12/23 12:01:18;;;;;;;12.18;10.88;;;10.30;99.90;;;;;;5032629;28;20229;-77
2022/12/23 12:03:59;;;;;;;10.82;8.90;;;10.30;99.90;;;;;;5033669;28;20217;-77
2022/12/23 12:06:27;;;;;;;14.45;10.32;;;10.30;99.90;;;;;;5033005;28;20217;-76
2022/12/23 12:09:01;;;;;;;21.35;13.60;;;10.30;99.90;;;;;;5033428;28;20308;-76
2022/12/23 12:11:38;;;;;;;15.77;12.13;;;10.30;99.90;;;;;;5032396;28;20624;-76
2022/12/23 12:14:08;;;;;;;16.48;11.82;;;10.30;99.90;;;;;;5031115;28;20379;-76
2022/12/23 12:16:51;;;;;;;17.13;13.07;;;10.30;99.90;;;;;;5032877;28;20316;-78
2022/12/23 12:19:24;;;;;;;13.23;10.10;;;10.30;99.90;;;;;;5032835;28;20230;-77
2022/12/23 12:21:54;;;;;;;14.27;10.50;;;10.30;99.90;;;;;;5022977;28;20252;-77
2022/12/23 12:24:27;;;;;;;15.80;12.20;;;10.30;99.90;;;;;;5022283;28;20229;-77
2022/12/23 12:27:01;;;;;;;20.17;14.80;;;10.30;99.90;;;;;;5033533;28;20222;-76
2022/12/23 12:29:35;;;;;;;18.10;12.73;;;10.30;99.90;;;;;;5033542;28;20248;-78
2022/12/23 12:32:05;;;;;;;14.45;10.68;;;10.30;99.90;;;;;;5034196;28;20224;-76
2022/12/23 12:34:42;;;;;;;15.25;11.07;;;10.30;99.90;;;;;;5035278;28;20233;-77
2022/12/23 12:37:22;;;;;;;16.10;10.60;;;10.40;99.90;;;;;;5034624;28;20217;-77
2022/12/23 12:39:54;;;;;;;15.13;12.15;;;10.30;99.90;;;;;;5043480;28;20225;-78
2022/12/23 12:42:28;;;;;;;14.68;10.68;;;10.40;99.90;;;;;;5042129;28;20224;-76
2022/12/23 12:45:10;;;;;;;13.50;9.60;;;10.30;99.90;;;;;;5041697;28;20344;-78
2022/12/23 12:47:46;;;;;;;11.25;10.05;;;10.30;99.90;;;;;;5050654;28;20221;-78
2022/12/23 12:50:18;;;;;;;16.13;11.30;;;10.40;99.90;;;;;;5048921;28;20313;-77
2022/12/23 12:52:45;;;;;;;11.73;9.90;;;10.30;99.90;;;;;;5038876;28;20225;-77
2022/12/23 12:55:19;;;;;;;15.73;11.55;;;10.40;99.90;;;;;;5053900;28;20277;-77
2022/12/23 12:57:47;;;;;;;13.93;11.25;;;10.30;99.90;;;;;;5057072;28;20236;-77
2022/12/23 13:00:20;;;;;;;13.82;10.60;;;10.40;99.90;;;;;;5048479;28;20224;-76
2022/12/23 13:03:08;;;;;;;15.52;10.55;;;10.40;99.90;;;;;;5043791;28;20233;-77
2022/12/23 13:05:55;;;;;;;16.25;10.65;;;10.40;99.90;;;;;;5051985;28;20240;-77
2022/12/23 13:08:51;;;;;;;13.02;9.95;;;10.40;99.90;;;;;;5055821;28;20259;-77
2022/12/23 13:11:27;;;;;;;14.10;11.20;;;10.40;99.90;;;;;;5055836;28;20209;-77
2022/12/23 13:14:23;;;;;;;12.95;10.20;;;10.40;99.90;;;;;;5052259;28;20344;-77
2022/12/23 13:17:00;;;;;;;12.40;9.98;;;10.40;99.90;;;;;;5048980;28;20309;-77
2022/12/23 13:19:38;;;;;;;12.10;9.57;;;10.40;99.90;;;;;;5042119;28;20241;-77
2022/12/23 13:22:12;;;;;;;12.25;9.60;;;10.40;99.90;;;;;;5038423;28;20244;-77
2022/12/23 13:24:52;;;;;;;12.70;10.07;;;10.40;99.90;;;;;;5044628;28;20287;-76
2022/12/23 13:27:36;;;;;;;14.32;10.77;;;10.30;99.90;;;;;;5040810;28;20295;-75
2022/12/23 13:30:14;;;;;;;14.82;10.57;;;10.30;99.90;;;;;;5017335;28;20551;-75
2022/12/23 13:33:08;;;;;;;14.00;10.65;;;10.30;99.90;;;;;;5037573;28;20229;-76